createdAt,value
2017-10-20T00:00:59.378Z,8.73
2017-10-20T00:03:27.034Z,7.73
2017-10-20T00:05:54.694Z,7.23
2017-10-20T00:08:22.290Z,7.33
2017-10-20T00:10:49.931Z,7.93
2017-10-20T00:13:17.526Z,6.77
2017-10-20T00:15:45.146Z,7.10
2017-10-20T00:18:12.815Z,9.77
2017-10-20T00:20:40.446Z,8.30
2017-10-20T00:23:08.034Z,7.73
2017-10-20T00:25:35.704Z,7.40
2017-10-20T00:28:03.294Z,7.43
2017-10-20T00:30:30.935Z,7.13
2017-10-20T00:32:58.545Z,7.40
2017-10-20T00:35:26.186Z,7.93
2017-10-20T00:37:53.785Z,8.73
2017-10-20T00:40:21.375Z,8.40
2017-10-20T00:42:49.011Z,6.90
2017-10-20T00:45:16.619Z,8.87
2017-10-20T00:47:45.451Z,8.97
2017-10-20T00:50:13.036Z,12.20
2017-10-20T00:52:40.683Z,7.93
2017-10-20T00:55:08.266Z,9.87
2017-10-20T00:57:35.891Z,8.93
2017-10-20T01:00:03.482Z,7.50
2017-10-20T01:02:31.120Z,11.00
2017-10-20T01:04:58.752Z,9.03
2017-10-20T01:07:26.505Z,7.07
2017-10-20T01:09:54.100Z,7.90
2017-10-20T01:12:21.727Z,10.90
2017-10-20T01:14:49.342Z,8.57
2017-10-20T01:17:16.934Z,8.63
2017-10-20T01:19:44.611Z,7.67
2017-10-20T01:22:12.231Z,7.23
2017-10-20T01:24:39.860Z,8.10
2017-10-20T01:27:07.486Z,10.47
2017-10-20T01:29:35.119Z,7.07
2017-10-20T01:32:02.723Z,9.80
2017-10-20T01:34:30.365Z,10.70
2017-10-20T01:36:57.947Z,8.90
2017-10-20T01:39:25.575Z,7.20
2017-10-20T01:41:53.179Z,10.53
2017-10-20T01:44:21.443Z,8.00
2017-10-20T01:46:49.035Z,8.30
2017-10-20T01:49:16.626Z,7.40
2017-10-20T01:51:44.257Z,7.87
2017-10-20T01:54:11.847Z,6.37
2017-10-20T01:56:39.458Z,10.47
2017-10-20T01:59:07.036Z,7.70
2017-10-20T02:01:34.657Z,8.73
2017-10-20T02:04:02.248Z,7.60
2017-10-20T02:06:29.871Z,9.17
2017-10-20T02:08:57.474Z,6.30
2017-10-20T02:11:25.148Z,7.73
2017-10-20T02:13:52.847Z,6.93
2017-10-20T02:16:20.471Z,6.00
2017-10-20T02:18:48.070Z,6.10
2017-10-20T02:21:15.660Z,6.97
2017-10-20T02:23:43.290Z,7.00
2017-10-20T02:26:10.972Z,7.67
2017-10-20T02:28:38.586Z,6.30
2017-10-20T02:31:06.216Z,6.73
2017-10-20T02:33:33.819Z,5.90
2017-10-20T02:36:01.447Z,7.23
2017-10-20T02:38:29.034Z,8.03
2017-10-20T02:40:56.672Z,6.20
2017-10-20T02:43:24.264Z,6.90
2017-10-20T02:45:51.888Z,7.63
2017-10-20T02:48:19.495Z,6.80
2017-10-20T02:50:47.139Z,15.33
2017-10-20T02:53:16.262Z,9.30
2017-10-20T02:55:43.936Z,6.50
2017-10-20T02:58:11.531Z,8.83
2017-10-20T03:00:39.181Z,9.33
2017-10-20T03:03:06.794Z,6.20
2017-10-20T03:05:34.424Z,6.23
2017-10-20T03:08:02.050Z,9.33
2017-10-20T03:10:29.721Z,7.53
2017-10-20T03:12:57.343Z,6.07
2017-10-20T03:15:24.979Z,6.63
2017-10-20T03:17:52.581Z,6.70
2017-10-20T03:20:20.203Z,6.83
2017-10-20T03:22:47.797Z,6.40
2017-10-20T03:25:15.651Z,7.87
2017-10-20T03:27:44.211Z,12.27
2017-10-20T03:30:11.884Z,7.00
2017-10-20T03:32:39.517Z,11.30
2017-10-20T03:35:07.107Z,8.80
2017-10-20T03:37:34.731Z,8.07
2017-10-20T03:40:02.384Z,11.17
2017-10-20T03:42:30.012Z,6.10
2017-10-20T03:44:57.714Z,6.03
2017-10-20T03:47:25.342Z,9.27
2017-10-20T03:49:52.954Z,7.70
2017-10-20T03:52:21.068Z,5.50
2017-10-20T03:54:49.421Z,10.20
2017-10-20T03:57:18.019Z,6.53
2017-10-20T03:59:45.610Z,6.07
2017-10-20T04:02:13.255Z,7.07
2017-10-20T04:04:40.944Z,6.13
2017-10-20T04:07:08.555Z,7.80
2017-10-20T04:09:36.291Z,5.73
2017-10-20T04:12:03.886Z,10.13
2017-10-20T04:14:31.544Z,14.60
2017-10-20T04:16:59.121Z,9.13
2017-10-20T04:19:27.990Z,6.87
2017-10-20T04:21:55.691Z,7.60
2017-10-20T04:24:23.320Z,7.93
2017-10-20T04:26:50.917Z,10.57
2017-10-20T04:29:18.547Z,7.83
2017-10-20T04:31:46.143Z,10.00
2017-10-20T04:34:13.766Z,8.40
2017-10-20T04:36:41.359Z,7.93
2017-10-20T04:39:08.995Z,8.27
2017-10-20T04:41:36.583Z,8.63
2017-10-20T04:44:04.205Z,8.67
2017-10-20T04:46:31.803Z,12.53
2017-10-20T04:48:59.493Z,10.20
2017-10-20T04:51:27.090Z,11.10
2017-10-20T04:53:54.739Z,8.83
2017-10-20T04:56:22.348Z,8.80
2017-10-20T04:58:49.995Z,8.17
2017-10-20T05:01:17.584Z,9.47
2017-10-20T05:03:45.690Z,8.70
2017-10-20T05:06:15.143Z,9.27
2017-10-20T05:08:42.734Z,8.30
2017-10-20T05:11:10.361Z,8.90
2017-10-20T05:13:37.954Z,7.40
2017-10-20T05:16:05.571Z,6.97
2017-10-20T05:18:33.174Z,8.63
2017-10-20T05:21:00.852Z,9.00
2017-10-20T05:23:28.447Z,13.03
2017-10-20T05:25:56.093Z,12.87
2017-10-20T05:28:23.702Z,11.30
2017-10-20T05:30:51.293Z,9.43
2017-10-20T05:33:18.943Z,10.83
2017-10-20T05:35:46.545Z,14.80
2017-10-20T05:38:14.173Z,11.23
2017-10-20T05:40:41.781Z,8.43
2017-10-20T05:43:09.417Z,8.30
2017-10-20T05:45:37.040Z,9.30
2017-10-20T05:48:04.712Z,10.13
2017-10-20T05:50:32.311Z,11.60
2017-10-20T05:52:59.942Z,9.23
2017-10-20T05:55:27.575Z,12.83
2017-10-20T05:57:55.212Z,9.33
2017-10-20T06:00:22.811Z,12.23
2017-10-20T06:02:50.446Z,9.67
2017-10-20T06:05:18.049Z,11.33
2017-10-20T06:07:45.676Z,9.90
2017-10-20T06:10:13.278Z,11.13
2017-10-20T06:12:40.910Z,11.07
2017-10-20T06:15:08.565Z,11.63
2017-10-20T06:17:40.912Z,12.23
2017-10-20T06:20:08.543Z,12.80
2017-10-20T06:22:36.142Z,13.50
2017-10-20T06:25:03.776Z,12.30
2017-10-20T06:27:31.386Z,12.07
2017-10-20T06:29:59.015Z,21.57
2017-10-20T06:32:26.688Z,11.20
2017-10-20T06:34:54.364Z,12.93
2017-10-20T06:37:21.967Z,13.70
2017-10-20T06:39:49.638Z,11.83
2017-10-20T06:42:17.343Z,12.97
2017-10-20T06:44:44.966Z,9.70
2017-10-20T06:47:12.571Z,9.10
2017-10-20T06:49:40.207Z,10.50
2017-10-20T06:52:07.823Z,14.43
2017-10-20T06:54:36.055Z,12.33
2017-10-20T06:57:03.662Z,10.97
2017-10-20T06:59:31.287Z,11.60
2017-10-20T07:01:59.172Z,11.30
2017-10-20T07:04:26.791Z,9.60
2017-10-20T07:06:54.415Z,8.60
2017-10-20T07:09:22.536Z,11.73
2017-10-20T07:11:50.119Z,8.33
2017-10-20T07:14:17.847Z,10.03
2017-10-20T07:16:45.418Z,9.87
2017-10-20T07:19:14.594Z,11.10
2017-10-20T07:21:42.175Z,10.77
2017-10-20T07:24:09.830Z,8.93
2017-10-20T07:26:37.451Z,11.53
2017-10-20T07:29:05.066Z,9.50
2017-10-20T07:31:32.667Z,10.87
2017-10-20T07:34:00.278Z,10.77
2017-10-20T07:36:27.907Z,9.90
2017-10-20T07:38:55.509Z,11.73
2017-10-20T07:41:23.162Z,11.40
2017-10-20T07:43:51.841Z,11.03
2017-10-20T07:46:19.459Z,12.70
2017-10-20T07:48:47.063Z,10.83
2017-10-20T07:51:14.699Z,11.60
2017-10-20T07:53:42.967Z,11.60
2017-10-20T07:56:10.604Z,12.30
2017-10-20T07:58:38.257Z,10.17
2017-10-20T08:01:05.897Z,9.70
2017-10-20T08:03:33.484Z,8.43
2017-10-20T08:06:01.179Z,9.60
2017-10-20T08:08:28.815Z,6.63
2017-10-20T08:10:56.438Z,8.30
2017-10-20T08:13:24.080Z,7.80
2017-10-20T08:15:51.687Z,6.77
2017-10-20T08:18:19.334Z,6.30
2017-10-20T08:20:47.035Z,7.30
2017-10-20T08:23:14.711Z,7.60
2017-10-20T08:25:42.336Z,8.43
2017-10-20T08:28:09.949Z,7.07
2017-10-20T08:30:37.662Z,7.50
2017-10-20T08:33:05.295Z,6.60
2017-10-20T08:35:32.883Z,6.53
2017-10-20T08:38:00.516Z,7.00
2017-10-20T08:40:28.364Z,6.70
2017-10-20T08:42:55.979Z,6.50
2017-10-20T08:45:23.558Z,6.37
2017-10-20T08:47:51.190Z,7.70
2017-10-20T08:50:18.826Z,6.80
2017-10-20T08:52:46.474Z,3.63
2017-10-20T08:55:14.082Z,2.40
2017-10-20T08:57:41.743Z,6.33
2017-10-20T09:00:10.315Z,3.20
2017-10-20T09:02:38.034Z,3.87
2017-10-20T09:05:05.638Z,2.97
2017-10-20T09:07:34.159Z,2.87
2017-10-20T09:10:01.759Z,1.90
2017-10-20T09:12:29.405Z,2.10
2017-10-20T09:14:57.020Z,2.73
2017-10-20T09:17:24.667Z,2.37
2017-10-20T09:19:52.258Z,3.30
2017-10-20T09:22:19.891Z,2.30
2017-10-20T09:24:47.522Z,1.30
2017-10-20T09:27:15.189Z,1.90
2017-10-20T09:29:42.987Z,2.60
2017-10-20T09:32:10.602Z,1.27
2017-10-20T09:34:38.883Z,2.70
2017-10-20T09:37:06.500Z,7.37
2017-10-20T09:39:34.123Z,5.30
2017-10-20T09:42:01.711Z,2.43
2017-10-20T09:44:29.879Z,1.67
2017-10-20T09:46:57.479Z,2.20
2017-10-20T09:49:25.098Z,3.77
2017-10-20T09:51:52.695Z,6.23
2017-10-20T09:54:20.320Z,3.30
2017-10-20T09:56:48.010Z,2.07
2017-10-20T09:59:15.625Z,2.07
2017-10-20T10:01:43.586Z,2.43
2017-10-20T10:04:11.223Z,1.57
2017-10-20T10:06:38.806Z,2.37
2017-10-20T10:09:06.438Z,1.50
2017-10-20T10:11:34.025Z,1.17
2017-10-20T10:14:01.661Z,1.00
2017-10-20T10:16:29.256Z,1.20
2017-10-20T10:18:56.962Z,3.53
2017-10-20T10:21:24.559Z,2.67
2017-10-20T10:23:52.215Z,0.70
2017-10-20T10:26:19.828Z,2.30
2017-10-20T10:28:48.414Z,1.20
2017-10-20T10:31:16.030Z,1.30
2017-10-20T10:33:43.651Z,3.63
2017-10-20T10:36:11.281Z,1.83
2017-10-20T10:38:38.872Z,1.63
2017-10-20T10:41:06.498Z,1.27
2017-10-20T10:43:34.094Z,2.30
2017-10-20T10:46:01.738Z,1.90
2017-10-20T10:48:29.360Z,1.30
2017-10-20T10:50:56.991Z,2.30
2017-10-20T10:53:24.582Z,3.00
2017-10-20T10:55:52.192Z,1.10
2017-10-20T10:58:20.774Z,1.37
2017-10-20T11:00:48.428Z,0.93
2017-10-20T11:03:16.027Z,2.23
2017-10-20T11:05:55.263Z,0.80
2017-10-20T11:08:34.482Z,3.63
2017-10-20T11:11:13.619Z,0.90
2017-10-20T11:13:41.230Z,1.00
2017-10-20T11:16:08.863Z,0.87
2017-10-20T11:18:36.456Z,1.00
2017-10-20T11:21:04.223Z,1.87
2017-10-20T11:23:31.831Z,0.93
2017-10-20T11:25:59.467Z,1.70
2017-10-20T11:28:27.051Z,5.57
2017-10-20T11:30:54.762Z,1.73
2017-10-20T11:33:22.362Z,3.10
2017-10-20T11:35:49.990Z,2.73
2017-10-20T11:38:17.595Z,1.80
2017-10-20T11:40:45.219Z,1.27
2017-10-20T11:43:13.787Z,2.60
2017-10-20T11:45:41.409Z,1.23
2017-10-20T11:48:09.010Z,2.27
2017-10-20T11:50:36.626Z,1.63
2017-10-20T11:53:04.218Z,1.90
2017-10-20T11:55:31.851Z,4.10
2017-10-20T11:57:59.459Z,1.83
2017-10-20T12:00:27.096Z,2.60
2017-10-20T12:02:54.719Z,3.93
2017-10-20T12:05:22.322Z,1.10
2017-10-20T12:07:49.920Z,0.90
2017-10-20T12:10:17.562Z,0.80
2017-10-20T12:12:45.216Z,1.07
2017-10-20T12:15:12.871Z,1.13
2017-10-20T12:17:40.490Z,1.63
2017-10-20T12:20:08.092Z,3.43
2017-10-20T12:22:35.720Z,1.57
2017-10-20T12:25:03.336Z,1.50
2017-10-20T12:27:30.954Z,3.80
2017-10-20T12:29:58.543Z,2.30
2017-10-20T12:32:26.156Z,2.90
2017-10-20T12:34:53.751Z,1.93
2017-10-20T12:37:36.104Z,2.20
2017-10-20T12:40:03.727Z,2.23
2017-10-20T12:42:31.362Z,1.00
2017-10-20T12:44:58.958Z,9.83
2017-10-20T12:47:26.602Z,2.30
2017-10-20T12:49:54.202Z,2.20
2017-10-20T12:52:21.840Z,3.13
2017-10-20T12:54:49.446Z,1.77
2017-10-20T12:57:17.163Z,3.27
2017-10-20T12:59:44.768Z,2.37
2017-10-20T13:02:12.392Z,1.07
2017-10-20T13:04:40.024Z,4.60
2017-10-20T13:07:07.683Z,3.83
2017-10-20T13:09:35.383Z,2.67
2017-10-20T13:12:02.985Z,3.07
2017-10-20T13:14:30.611Z,3.43
2017-10-20T13:16:58.231Z,3.10
2017-10-20T13:19:25.887Z,7.57
2017-10-20T13:21:53.547Z,1.60
2017-10-20T13:24:21.180Z,2.40
2017-10-20T13:26:48.790Z,4.13
2017-10-20T13:29:16.406Z,1.90
2017-10-20T13:31:44.014Z,2.70
2017-10-20T13:34:11.658Z,2.50
2017-10-20T13:36:39.269Z,2.20
2017-10-20T13:39:06.983Z,5.10
2017-10-20T13:41:34.585Z,3.90
2017-10-20T13:44:02.231Z,2.50
2017-10-20T13:46:29.823Z,1.63
2017-10-20T13:48:57.443Z,3.20
2017-10-20T13:51:25.042Z,4.80
2017-10-20T13:53:52.639Z,3.00
2017-10-20T13:56:20.301Z,1.67
2017-10-20T13:58:47.907Z,4.40
2017-10-20T14:01:15.547Z,6.73
2017-10-20T14:03:43.151Z,6.17
2017-10-20T14:06:10.826Z,2.70
2017-10-20T14:08:38.455Z,2.83
2017-10-20T14:11:06.116Z,2.77
2017-10-20T14:13:33.770Z,1.87
2017-10-20T14:16:01.412Z,4.30
2017-10-20T14:18:29.020Z,2.37
2017-10-20T14:20:56.663Z,1.33
2017-10-20T14:23:25.113Z,5.93
2017-10-20T14:25:52.730Z,5.57
2017-10-20T14:28:20.346Z,2.83
2017-10-20T14:30:48.072Z,1.73
2017-10-20T14:33:15.703Z,1.27
2017-10-20T14:35:43.435Z,3.10
2017-10-20T14:38:11.075Z,1.97
2017-10-20T14:40:38.691Z,2.53
2017-10-20T14:43:06.344Z,2.87
2017-10-20T14:45:34.701Z,3.07
2017-10-20T14:48:02.323Z,4.43
2017-10-20T14:50:29.964Z,2.13
2017-10-20T14:52:57.598Z,3.17
2017-10-20T14:55:25.266Z,2.77
2017-10-20T14:57:52.951Z,4.23
2017-10-20T15:00:20.617Z,3.73
2017-10-20T15:02:48.259Z,3.60
2017-10-20T15:05:15.867Z,3.57
2017-10-20T15:07:43.526Z,2.83
2017-10-20T15:10:11.131Z,2.40
2017-10-20T15:12:38.782Z,2.03
2017-10-20T15:15:06.386Z,4.90
2017-10-20T15:17:34.043Z,4.77
2017-10-20T15:20:01.668Z,5.90
2017-10-20T15:22:29.380Z,2.33
2017-10-20T15:24:56.996Z,3.90
2017-10-20T15:27:24.623Z,6.13
2017-10-20T15:29:52.233Z,1.80
2017-10-20T15:32:19.967Z,2.70
2017-10-20T15:34:47.593Z,5.53
2017-10-20T15:37:15.241Z,2.00
2017-10-20T15:39:42.840Z,2.80
2017-10-20T15:42:10.484Z,3.17
2017-10-20T15:44:38.081Z,6.70
2017-10-20T15:47:05.765Z,7.83
2017-10-20T15:49:33.434Z,4.80
2017-10-20T15:52:01.085Z,6.73
2017-10-20T15:54:28.737Z,3.00
2017-10-20T15:56:57.166Z,2.97
2017-10-20T15:59:24.786Z,4.30
2017-10-20T16:01:52.434Z,3.63
2017-10-20T16:04:20.042Z,5.03
2017-10-20T16:06:47.679Z,4.20
2017-10-20T16:09:15.289Z,1.80
2017-10-20T16:11:42.930Z,2.13
2017-10-20T16:14:10.532Z,2.57
2017-10-20T16:16:38.167Z,1.60
2017-10-20T16:19:05.845Z,3.33
2017-10-20T16:21:33.488Z,4.07
2017-10-20T16:24:01.087Z,6.50
2017-10-20T16:26:28.723Z,2.33
2017-10-20T16:28:56.314Z,4.37
2017-10-20T16:31:23.963Z,3.70
2017-10-20T16:33:51.578Z,2.93
2017-10-20T16:36:19.254Z,6.10
2017-10-20T16:38:47.103Z,3.20
2017-10-20T16:41:14.750Z,4.37
2017-10-20T16:43:42.386Z,3.50
2017-10-20T16:46:10.024Z,4.97
2017-10-20T16:48:38.451Z,3.27
2017-10-20T16:51:06.152Z,3.97
2017-10-20T16:53:33.747Z,3.90
2017-10-20T16:56:01.367Z,6.70
2017-10-20T16:58:29.117Z,6.77
2017-10-20T17:00:56.719Z,2.20
2017-10-20T17:03:24.348Z,3.93
2017-10-20T17:05:51.983Z,1.30
2017-10-20T17:08:19.618Z,2.90
2017-10-20T17:10:47.243Z,6.20
2017-10-20T17:13:14.895Z,5.70
2017-10-20T17:15:42.494Z,3.40
2017-10-20T17:18:11.300Z,4.30
2017-10-20T17:20:38.896Z,6.23
2017-10-20T17:23:06.535Z,4.43
2017-10-20T17:25:34.143Z,4.70
2017-10-20T17:28:01.814Z,4.20
2017-10-20T17:30:29.454Z,6.00
2017-10-20T17:32:57.148Z,4.93
2017-10-20T17:35:24.746Z,4.07
2017-10-20T17:37:52.429Z,5.93
2017-10-20T17:40:20.053Z,4.07
2017-10-20T17:42:47.771Z,6.60
2017-10-20T17:45:15.379Z,4.10
2017-10-20T17:47:43.122Z,7.63
2017-10-20T17:50:10.723Z,4.40
2017-10-20T17:52:38.327Z,3.70
2017-10-20T17:55:05.969Z,3.10
2017-10-20T17:57:33.616Z,5.10
2017-10-20T18:00:02.897Z,7.57
2017-10-20T18:02:30.524Z,8.50
2017-10-20T18:04:58.170Z,8.43
2017-10-20T18:07:25.782Z,2.20
2017-10-20T18:09:53.436Z,6.00
2017-10-20T18:12:21.031Z,2.23
2017-10-20T18:14:48.709Z,6.40
2017-10-20T18:17:16.308Z,5.70
2017-10-20T18:19:43.911Z,3.47
2017-10-20T18:22:11.550Z,3.20
2017-10-20T18:24:39.204Z,6.40
2017-10-20T18:27:06.838Z,3.60
2017-10-20T18:29:34.436Z,4.63
2017-10-20T18:32:02.124Z,4.20
2017-10-20T18:34:29.762Z,3.30
2017-10-20T18:36:57.477Z,3.67
2017-10-20T18:39:25.162Z,4.43
2017-10-20T18:41:52.792Z,3.57
2017-10-20T18:44:20.438Z,6.30
2017-10-20T18:46:48.046Z,2.63
2017-10-20T18:49:15.677Z,2.57
2017-10-20T18:51:43.290Z,2.73
2017-10-20T18:54:10.941Z,6.50
2017-10-20T18:56:39.545Z,5.87
2017-10-20T18:59:07.184Z,4.93
2017-10-20T19:01:34.819Z,3.73
2017-10-20T19:04:02.479Z,6.10
2017-10-20T19:06:30.087Z,7.67
2017-10-20T19:09:01.629Z,5.20
2017-10-20T19:11:29.249Z,4.80
2017-10-20T19:13:56.893Z,4.57
2017-10-20T19:16:24.512Z,4.80
2017-10-20T19:18:52.378Z,8.57
2017-10-20T19:21:21.034Z,4.70
2017-10-20T19:23:48.696Z,5.70
2017-10-20T19:26:16.363Z,6.47
2017-10-20T19:28:44.955Z,4.30
2017-10-20T19:31:13.480Z,3.50
2017-10-20T19:33:41.123Z,4.40
2017-10-20T19:36:09.575Z,4.40
2017-10-20T19:38:37.196Z,5.83
2017-10-20T19:41:04.884Z,4.50
2017-10-20T19:43:32.606Z,3.70
2017-10-20T19:46:00.292Z,5.10
2017-10-20T19:48:27.936Z,7.13
2017-10-20T19:50:55.592Z,4.13
2017-10-20T19:53:23.226Z,4.30
2017-10-20T19:55:50.868Z,2.27
2017-10-20T19:58:18.480Z,2.50
2017-10-20T20:00:46.116Z,2.97
2017-10-20T20:03:13.760Z,2.70
2017-10-20T20:05:41.398Z,5.17
2017-10-20T20:08:08.999Z,4.93
2017-10-20T20:10:36.651Z,8.87
2017-10-20T20:13:04.255Z,4.23
2017-10-20T20:15:32.638Z,7.27
2017-10-20T20:18:00.231Z,7.80
2017-10-20T20:20:28.064Z,13.13
2017-10-20T20:22:55.679Z,3.73
2017-10-20T20:25:23.337Z,6.20
2017-10-20T20:27:50.946Z,6.00
2017-10-20T20:30:20.649Z,4.73
2017-10-20T20:33:03.127Z,13.10
2017-10-20T20:35:30.797Z,3.80
2017-10-20T20:37:58.401Z,5.03
2017-10-20T20:40:26.054Z,8.33
2017-10-20T20:42:53.801Z,5.90
2017-10-20T20:45:21.449Z,2.83
2017-10-20T20:47:49.072Z,4.83
2017-10-20T20:50:16.755Z,3.23
2017-10-20T20:52:44.362Z,5.10
2017-10-20T20:55:12.040Z,4.80
2017-10-20T20:57:39.687Z,4.63
2017-10-20T21:00:07.300Z,3.27
2017-10-20T21:02:34.915Z,5.23
2017-10-20T21:05:02.531Z,7.60
2017-10-20T21:07:30.179Z,4.50
2017-10-20T21:09:57.820Z,4.73
2017-10-20T21:12:25.463Z,6.63
2017-10-20T21:14:53.110Z,9.77
2017-10-20T21:17:20.801Z,12.83
2017-10-20T21:19:48.447Z,7.33
2017-10-20T21:22:16.047Z,3.73
2017-10-20T21:24:43.699Z,4.00
2017-10-20T21:27:11.305Z,5.97
2017-10-20T21:29:38.946Z,7.40
2017-10-20T21:32:06.592Z,6.70
2017-10-20T21:34:35.207Z,4.97
2017-10-20T21:37:02.810Z,6.60
2017-10-20T21:39:30.426Z,3.83
2017-10-20T21:41:58.094Z,5.83
2017-10-20T21:44:25.685Z,5.50
2017-10-20T21:46:53.311Z,5.20
2017-10-20T21:49:20.915Z,4.73
2017-10-20T21:51:48.554Z,5.43
2017-10-20T21:54:16.151Z,4.93
2017-10-20T21:56:43.791Z,3.80
2017-10-20T21:59:11.391Z,9.97
2017-10-20T22:01:39.039Z,6.70
2017-10-20T22:04:06.903Z,4.90
2017-10-20T22:06:34.528Z,4.90
2017-10-20T22:09:02.128Z,3.57
2017-10-20T22:11:29.779Z,8.00
2017-10-20T22:13:57.383Z,8.37
2017-10-20T22:16:25.016Z,5.03
2017-10-20T22:18:52.787Z,3.30
2017-10-20T22:21:20.462Z,8.20
2017-10-20T22:23:48.059Z,4.67
2017-10-20T22:26:15.719Z,5.90
2017-10-20T22:28:43.355Z,3.03
2017-10-20T22:31:10.969Z,8.77
2017-10-20T22:33:38.624Z,3.70
2017-10-20T22:36:06.228Z,4.80
2017-10-20T22:38:33.862Z,8.43
2017-10-20T22:41:01.500Z,2.57
2017-10-20T22:43:29.145Z,10.40
2017-10-20T22:45:56.763Z,5.93
2017-10-20T22:48:24.408Z,5.57
2017-10-20T22:50:52.018Z,6.03
2017-10-20T22:53:19.645Z,8.20
2017-10-20T22:55:47.408Z,4.90
2017-10-20T22:58:15.105Z,7.27
2017-10-20T23:00:42.761Z,3.47
2017-10-20T23:03:10.403Z,3.23
2017-10-20T23:05:38.087Z,7.20
2017-10-20T23:08:05.926Z,3.33
2017-10-20T23:10:33.541Z,4.50
2017-10-20T23:13:01.180Z,5.50
2017-10-20T23:15:28.773Z,4.83
2017-10-20T23:17:56.589Z,4.30
2017-10-20T23:20:24.175Z,6.40
2017-10-20T23:22:51.809Z,3.93
2017-10-20T23:25:19.438Z,5.70
2017-10-20T23:27:47.071Z,5.73
2017-10-20T23:30:14.703Z,6.27
2017-10-20T23:32:43.003Z,5.00
2017-10-20T23:35:10.606Z,4.63
2017-10-20T23:37:38.234Z,2.90
2017-10-20T23:40:05.895Z,3.27
2017-10-20T23:42:33.527Z,5.83
2017-10-20T23:45:01.135Z,6.83
2017-10-20T23:47:28.787Z,6.27
2017-10-20T23:49:56.403Z,3.70
2017-10-20T23:52:24.025Z,5.10
2017-10-20T23:54:51.634Z,4.43
2017-10-20T23:57:19.242Z,4.23
2017-10-20T23:59:47.044Z,6.90
